Time;durP1;ratioP1;P1;durP2;ratioP2;P2;SDS_P1;SDS_P2;PMS_P1;PMS_P2;Temp;Humidity;BMP_temperature;BMP_pressure;BME280_temperature;BME280_humidity;BME280_pressure;Samples;Min_cycle;Max_cycle;Signal;HPM_P1;HPM_P2
2021/04/26 00:01:51;;;;;;;16.65;9.80;;;12.50;70.00;;;;;;5136791;27;20032;-70
2021/04/26 00:04:17;;;;;;;21.65;9.52;;;12.40;70.90;;;;;;5136672;27;20035;-71
2021/04/26 00:06:43;;;;;;;16.55;8.63;;;12.40;70.10;;;;;;5118262;27;20443;-71
2021/04/26 00:09:09;;;;;;;15.30;9.00;;;12.40;68.60;;;;;;5118243;27;20031;-70
2021/04/26 00:11:35;;;;;;;13.68;9.15;;;12.40;68.10;;;;;;5136627;27;20424;-70
2021/04/26 00:14:03;;;;;;;17.48;8.82;;;12.40;68.40;;;;;;5118045;27;20027;-71
2021/04/26 00:16:29;;;;;;;18.40;9.43;;;12.40;68.00;;;;;;5136292;27;20102;-71
2021/04/26 00:18:55;;;;;;;16.25;8.85;;;12.30;68.00;;;;;;5136702;27;20110;-70
2021/04/26 00:21:21;;;;;;;15.60;9.18;;;12.30;68.80;;;;;;5136168;27;20049;-71
2021/04/26 00:23:47;;;;;;;16.10;8.73;;;12.20;69.50;;;;;;5136026;27;20473;-71
2021/04/26 00:26:13;;;;;;;14.15;8.25;;;12.20;70.20;;;;;;5136073;27;20047;-72
2021/04/26 00:28:39;;;;;;;12.73;7.85;;;12.20;70.10;;;;;;5136305;27;20027;-71
2021/04/26 00:31:05;;;;;;;13.18;8.27;;;12.20;68.20;;;;;;5136233;27;20076;-71
2021/04/26 00:33:31;;;;;;;18.67;8.68;;;12.20;68.80;;;;;;5136197;27;20038;-71
2021/04/26 00:35:57;;;;;;;18.35;8.20;;;12.20;68.30;;;;;;5136185;27;20487;-71
2021/04/26 00:38:22;;;;;;;12.18;7.63;;;12.30;65.50;;;;;;5117688;27;20038;-72
2021/04/26 00:40:48;;;;;;;17.10;8.07;;;12.20;65.00;;;;;;5136063;27;20027;-72
2021/04/26 00:43:14;;;;;;;16.10;9.85;;;12.20;67.60;;;;;;5117472;27;20035;-71
2021/04/26 00:45:40;;;;;;;18.80;9.27;;;12.00;67.30;;;;;;5117229;27;20057;-71
2021/04/26 00:48:07;;;;;;;14.73;9.30;;;11.90;67.10;;;;;;5135612;27;20030;-70
2021/04/26 00:50:33;;;;;;;18.77;9.27;;;11.80;66.00;;;;;;5117398;27;20023;-71
2021/04/26 00:53:02;;;;;;;14.93;8.57;;;11.90;67.10;;;;;;5135793;27;20035;-72
2021/04/26 00:55:31;;;;;;;14.40;8.93;;;11.90;66.30;;;;;;5135786;27;20031;-71
2021/04/26 00:57:58;;;;;;;12.88;8.27;;;11.90;66.10;;;;;;5135714;27;20023;-70
2021/04/26 01:00:24;;;;;;;15.00;8.68;;;11.80;66.40;;;;;;5116917;27;20023;-70
2021/04/26 01:02:50;;;;;;;15.02;8.52;;;11.80;66.60;;;;;;5117029;27;20475;-70
2021/04/26 01:05:19;;;;;;;16.48;8.50;;;11.70;66.20;;;;;;5117156;27;20065;-70
2021/04/26 01:07:46;;;;;;;16.20;8.68;;;11.70;67.00;;;;;;5135489;27;20019;-71
2021/04/26 01:10:15;;;;;;;15.07;8.18;;;11.60;67.90;;;;;;5116995;27;20035;-72
2021/04/26 01:12:59;;;;;;;15.30;9.50;;;11.40;68.80;;;;;;5116916;27;20027;-71
2021/04/26 01:15:30;;;;;;;14.73;9.10;;;11.40;68.90;;;;;;5116802;27;20016;-71
2021/04/26 01:18:04;;;;;;;16.23;9.35;;;11.40;70.80;;;;;;5116883;27;20026;-71
2021/04/26 01:21:06;;;;;;;15.80;9.75;;;11.30;71.00;;;;;;5135112;27;20028;-71
2021/04/26 01:24:04;;;;;;;14.68;9.70;;;11.20;71.70;;;;;;5116710;27;20066;-71
2021/04/26 01:26:42;;;;;;;14.73;9.05;;;11.20;71.10;;;;;;5116168;27;20070;-71
2021/04/26 01:29:17;;;;;;;17.73;9.48;;;11.00;71.50;;;;;;5134858;27;20043;-71
2021/04/26 01:32:12;;;;;;;21.00;9.32;;;11.00;71.40;;;;;;5116634;27;20138;-72
2021/04/26 01:34:40;;;;;;;15.90;9.48;;;11.10;71.10;;;;;;5086582;27;20039;-69
2021/04/26 01:37:07;;;;;;;20.08;10.10;;;11.00;71.40;;;;;;5134920;27;20107;-71
2021/04/26 01:39:34;;;;;;;17.83;10.30;;;11.00;71.90;;;;;;5116466;27;20023;-70
2021/04/26 01:42:00;;;;;;;19.25;10.32;;;10.90;72.30;;;;;;5134564;27;20028;-69
2021/04/26 01:44:26;;;;;;;19.52;10.57;;;11.00;72.10;;;;;;5116136;27;20084;-69
2021/04/26 01:46:53;;;;;;;21.08;11.07;;;11.10;72.40;;;;;;5135076;27;20038;-72
2021/04/26 01:49:20;;;;;;;22.80;10.85;;;11.10;71.40;;;;;;5116267;27;20025;-70
2021/04/26 01:51:47;;;;;;;18.25;11.45;;;11.10;73.60;;;;;;5134689;27;20027;-71
2021/04/26 01:54:13;;;;;;;26.08;11.98;;;10.80;74.80;;;;;;5116202;27;20395;-70
2021/04/26 01:56:40;;;;;;;21.55;12.43;;;10.80;76.90;;;;;;5116208;27;20027;-70
2021/04/26 01:59:07;;;;;;;21.48;13.18;;;10.80;77.90;;;;;;5134536;27;20088;-71
2021/04/26 02:01:33;;;;;;;20.40;12.50;;;10.60;77.50;;;;;;5134587;27;20045;-70
2021/04/26 02:04:01;;;;;;;25.23;13.00;;;10.50;79.30;;;;;;5134387;27;20073;-70
2021/04/26 02:06:28;;;;;;;22.08;12.43;;;10.40;80.40;;;;;;5134388;27;20467;-70
2021/04/26 02:08:55;;;;;;;25.70;12.90;;;10.50;81.30;;;;;;5134403;27;20072;-70
2021/04/26 02:11:21;;;;;;;22.92;12.73;;;10.40;80.70;;;;;;5115326;27;20031;-70
2021/04/26 02:13:48;;;;;;;19.38;11.63;;;10.40;80.90;;;;;;5134314;27;20038;-70
2021/04/26 02:16:14;;;;;;;20.02;10.30;;;10.40;80.50;;;;;;5115824;27;20023;-70
2021/04/26 02:18:40;;;;;;;21.17;10.05;;;10.50;81.10;;;;;;5134505;27;20023;-70
2021/04/26 02:21:07;;;;;;;18.20;10.48;;;10.50;80.90;;;;;;5134540;27;20038;-70
2021/04/26 02:23:33;;;;;;;20.20;9.98;;;10.60;81.50;;;;;;5115645;27;20030;-69
2021/04/26 02:25:59;;;;;;;18.75;10.30;;;10.70;81.60;;;;;;5133635;27;20256;-68
2021/04/26 02:28:26;;;;;;;23.58;12.73;;;10.60;82.60;;;;;;5134144;27;20345;-68
2021/04/26 02:30:58;;;;;;;21.27;12.77;;;10.50;81.80;;;;;;5134112;27;20455;-69
2021/04/26 02:33:35;;;;;;;21.80;13.75;;;10.60;82.00;;;;;;5134065;27;20023;-68
2021/04/26 02:36:10;;;;;;;24.83;14.40;;;10.60;83.20;;;;;;5134072;28;20019;-69
2021/04/26 02:38:45;;;;;;;26.52;14.98;;;10.60;82.90;;;;;;5134359;28;20453;-70
2021/04/26 02:41:15;;;;;;;23.65;13.95;;;10.70;83.20;;;;;;5115903;28;20031;-70
2021/04/26 02:43:44;;;;;;;24.40;14.32;;;10.60;82.00;;;;;;5133926;28;20027;-70
2021/04/26 02:46:13;;;;;;;24.60;14.23;;;10.70;82.10;;;;;;5133977;28;20023;-69
2021/04/26 02:48:45;;;;;;;25.40;13.32;;;10.70;82.00;;;;;;5133909;28;20031;-70
2021/04/26 02:51:11;;;;;;;23.20;13.57;;;10.80;82.40;;;;;;5133722;28;20023;-70
2021/04/26 02:53:37;;;;;;;27.67;14.27;;;10.60;81.90;;;;;;5133878;28;20038;-68
2021/04/26 02:56:07;;;;;;;26.23;14.43;;;10.60;83.10;;;;;;5115359;28;20027;-70
2021/04/26 02:58:34;;;;;;;28.60;14.63;;;10.70;82.90;;;;;;5133925;28;20072;-69
2021/04/26 03:01:03;;;;;;;22.73;13.02;;;10.60;83.00;;;;;;5133544;28;20451;-70
2021/04/26 03:03:32;;;;;;;23.60;13.90;;;10.60;83.40;;;;;;5115342;28;20035;-71
2021/04/26 03:05:59;;;;;;;26.88;14.18;;;10.60;83.30;;;;;;5133777;28;20023;-69
2021/04/26 03:08:29;;;;;;;27.00;13.32;;;10.70;83.80;;;;;;5134061;28;20088;-70
2021/04/26 03:10:57;;;;;;;25.27;13.55;;;10.70;84.40;;;;;;5133723;28;20051;-70
2021/04/26 03:13:27;;;;;;;23.65;13.65;;;10.70;84.70;;;;;;5133682;28;20061;-69
2021/04/26 03:15:54;;;;;;;40.60;13.57;;;10.70;85.70;;;;;;5133946;28;20050;-70
2021/04/26 03:18:20;;;;;;;24.50;14.52;;;10.80;84.60;;;;;;5133647;28;20360;-71
2021/04/26 03:20:46;;;;;;;23.35;13.40;;;10.70;86.60;;;;;;5115209;28;20164;-70
2021/04/26 03:23:19;;;;;;;26.73;13.95;;;10.70;85.90;;;;;;5136139;27;20410;-69
2021/04/26 03:25:45;;;;;;;26.02;13.23;;;10.80;83.20;;;;;;5118776;27;20066;-70
2021/04/26 03:28:12;;;;;;;24.17;13.55;;;10.80;83.90;;;;;;5137452;27;20019;-71
2021/04/26 03:30:39;;;;;;;26.15;13.20;;;10.90;83.40;;;;;;5118936;27;20075;-70
2021/04/26 03:33:05;;;;;;;25.60;13.95;;;10.80;83.70;;;;;;5119262;27;20387;-70
2021/04/26 03:35:32;;;;;;;29.55;13.98;;;11.00;82.70;;;;;;5137305;27;20069;-70
2021/04/26 03:37:58;;;;;;;51.28;28.40;;;11.00;84.90;;;;;;5137239;27;20034;-69
2021/04/26 03:40:26;;;;;;;61.72;28.80;;;11.00;85.20;;;;;;5137258;27;20031;-69
2021/04/26 03:42:58;;;;;;;78.80;40.58;;;11.00;84.70;;;;;;5118704;27;20479;-71
2021/04/26 03:45:24;;;;;;;87.75;47.70;;;11.10;86.20;;;;;;5137262;27;20023;-70
2021/04/26 03:47:51;;;;;;;90.63;48.45;;;11.10;85.30;;;;;;5136786;27;20031;-69
2021/04/26 03:50:18;;;;;;;89.47;48.80;;;11.10;84.70;;;;;;5137055;27;20023;-69
2021/04/26 03:52:44;;;;;;;54.65;30.42;;;11.10;85.40;;;;;;5137297;27;20023;-69
2021/04/26 03:55:15;;;;;;;30.52;17.27;;;11.10;85.00;;;;;;5137257;27;20417;-69
2021/04/26 03:57:41;;;;;;;33.65;17.65;;;11.10;85.20;;;;;;5118524;27;20027;-69
2021/04/26 04:00:08;;;;;;;37.10;20.45;;;11.10;85.50;;;;;;5137163;27;20084;-69
2021/04/26 04:02:34;;;;;;;50.33;23.40;;;11.00;85.30;;;;;;5118193;27;20034;-70
2021/04/26 04:05:01;;;;;;;64.93;28.35;;;10.90;86.50;;;;;;5118323;27;20027;-70
2021/04/26 04:07:27;;;;;;;43.55;22.05;;;10.80;87.80;;;;;;5136818;27;20019;-69
2021/04/26 04:09:54;;;;;;;40.88;21.17;;;10.70;88.70;;;;;;5136976;27;20069;-70
2021/04/26 04:12:20;;;;;;;35.13;20.05;;;10.70;89.30;;;;;;5136660;27;20027;-69
2021/04/26 04:14:46;;;;;;;44.35;21.77;;;10.70;86.90;;;;;;5118130;27;20498;-69
2021/04/26 04:17:13;;;;;;;41.70;22.08;;;10.80;86.30;;;;;;5136583;27;20031;-69
2021/04/26 04:19:38;;;;;;;74.38;25.10;;;10.80;88.50;;;;;;5136474;27;20509;-71
2021/04/26 04:22:04;;;;;;;45.20;26.10;;;10.80;88.10;;;;;;5136503;27;20054;-69
2021/04/26 04:24:30;;;;;;;48.58;27.35;;;10.80;87.30;;;;;;5135964;27;20096;-69
2021/04/26 04:26:56;;;;;;;50.50;29.75;;;10.70;88.60;;;;;;5135919;27;20046;-69
2021/04/26 04:29:22;;;;;;;48.60;26.58;;;10.70;87.70;;;;;;5136341;27;20027;-70
2021/04/26 04:31:48;;;;;;;39.30;23.25;;;10.70;87.70;;;;;;5117503;27;20108;-70
2021/04/26 04:34:14;;;;;;;37.60;22.83;;;10.60;88.50;;;;;;5135567;27;20039;-70
2021/04/26 04:36:40;;;;;;;35.78;20.77;;;10.60;89.50;;;;;;5117624;27;20031;-70
2021/04/26 04:39:06;;;;;;;52.45;21.98;;;10.50;90.20;;;;;;5117707;27;20467;-70
2021/04/26 04:41:32;;;;;;;37.67;17.30;;;10.50;90.20;;;;;;5136038;27;20020;-69
2021/04/26 04:43:59;;;;;;;34.67;18.25;;;10.50;90.30;;;;;;5117429;27;20120;-69
2021/04/26 04:46:26;;;;;;;35.13;18.83;;;10.60;90.40;;;;;;5136001;27;20026;-68
2021/04/26 04:48:52;;;;;;;34.22;18.73;;;10.60;90.30;;;;;;5135932;27;20557;-69
2021/04/26 04:51:17;;;;;;;35.80;17.35;;;10.70;90.70;;;;;;5117512;27;20036;-70
2021/04/26 04:53:43;;;;;;;28.42;16.15;;;10.80;90.20;;;;;;5135311;27;20539;-70
2021/04/26 04:56:09;;;;;;;24.30;15.88;;;10.80;90.60;;;;;;5135758;27;20114;-70
2021/04/26 04:58:35;;;;;;;32.00;15.05;;;10.90;90.50;;;;;;5117219;27;20055;-71
2021/04/26 05:01:01;;;;;;;26.27;13.68;;;11.00;90.90;;;;;;5117205;27;20023;-70
2021/04/26 05:03:27;;;;;;;29.02;15.13;;;10.90;91.80;;;;;;5135443;27;20040;-69
2021/04/26 05:05:53;;;;;;;31.15;17.52;;;11.00;92.10;;;;;;5116834;27;20043;-69
2021/04/26 05:08:19;;;;;;;32.92;17.70;;;11.00;92.20;;;;;;5135600;27;20166;-69
2021/04/26 05:10:45;;;;;;;29.80;19.63;;;11.10;92.40;;;;;;5116708;27;20122;-70
2021/04/26 05:13:12;;;;;;;38.35;18.63;;;11.10;93.00;;;;;;5135108;27;20027;-69
2021/04/26 05:15:39;;;;;;;24.35;15.05;;;11.10;92.60;;;;;;5116823;27;20030;-70
2021/04/26 05:18:07;;;;;;;25.45;15.90;;;11.20;92.40;;;;;;5135392;27;20050;-68
2021/04/26 05:20:33;;;;;;;26.30;16.75;;;11.20;92.70;;;;;;5135247;27;20080;-68
2021/04/26 05:22:58;;;;;;;37.20;22.45;;;11.30;93.00;;;;;;5116658;27;20456;-69
2021/04/26 05:25:24;;;;;;;32.72;19.38;;;11.30;93.30;;;;;;5134858;27;20121;-69
2021/04/26 05:27:50;;;;;;;27.15;16.67;;;11.30;92.90;;;;;;5135106;27;20456;-70
2021/04/26 05:30:17;;;;;;;33.28;17.05;;;11.40;92.20;;;;;;5116478;27;20038;-71
2021/04/26 05:32:42;;;;;;;34.45;15.93;;;11.40;91.90;;;;;;5135166;27;20032;-68
2021/04/26 05:35:08;;;;;;;24.08;16.50;;;11.40;92.20;;;;;;5134955;27;20359;-69
2021/04/26 05:37:34;;;;;;;37.45;18.33;;;11.40;92.70;;;;;;5116416;27;20019;-71
2021/04/26 05:40:00;;;;;;;21.83;16.63;;;11.40;92.40;;;;;;5116414;27;20031;-68
2021/04/26 05:42:26;;;;;;;26.00;15.80;;;11.40;92.00;;;;;;5134481;27;20030;-72
2021/04/26 05:44:52;;;;;;;23.65;14.73;;;11.40;91.80;;;;;;5134513;27;20027;-69
2021/04/26 05:47:18;;;;;;;20.17;14.43;;;11.50;92.40;;;;;;5134256;27;20105;-71
2021/04/26 05:49:44;;;;;;;26.00;15.25;;;11.50;92.50;;;;;;5134603;27;20027;-70
2021/04/26 05:52:09;;;;;;;19.67;14.60;;;11.60;91.80;;;;;;5116068;27;20035;-70
2021/04/26 05:54:35;;;;;;;26.27;17.17;;;11.60;91.80;;;;;;5115918;27;20475;-71
2021/04/26 05:57:01;;;;;;;20.67;15.40;;;11.70;91.50;;;;;;5134361;27;20079;-71
2021/04/26 05:59:27;;;;;;;19.60;14.43;;;11.80;91.50;;;;;;5134319;27;20050;-72
2021/04/26 06:01:53;;;;;;;31.05;14.38;;;11.80;91.10;;;;;;5134071;27;20395;-72
2021/04/26 06:04:18;;;;;;;31.13;15.10;;;11.90;90.30;;;;;;5134253;27;20040;-71
2021/04/26 06:06:44;;;;;;;20.48;13.85;;;11.90;90.80;;;;;;5115730;27;20026;-71
2021/04/26 06:09:10;;;;;;;18.13;12.73;;;12.00;89.80;;;;;;5134770;27;20063;-69
2021/04/26 06:11:36;;;;;;;42.97;17.70;;;11.90;90.20;;;;;;5134333;27;20028;-69
2021/04/26 06:14:02;;;;;;;20.13;12.75;;;12.10;89.90;;;;;;5134278;27;20032;-70
2021/04/26 06:16:28;;;;;;;25.35;13.38;;;12.20;90.40;;;;;;5134207;27;20031;-74
2021/04/26 06:18:54;;;;;;;19.52;12.75;;;12.30;90.00;;;;;;5134326;27;20046;-73
2021/04/26 06:21:19;;;;;;;20.73;15.13;;;12.30;90.10;;;;;;5133877;27;20110;-72
2021/04/26 06:23:45;;;;;;;21.75;15.95;;;12.50;89.80;;;;;;5115274;27;20031;-70
2021/04/26 06:26:11;;;;;;;18.20;12.57;;;12.50;88.00;;;;;;5133881;27;20046;-70
2021/04/26 06:28:37;;;;;;;58.53;25.00;;;12.60;88.40;;;;;;5115365;28;20024;-71
2021/04/26 06:31:04;;;;;;;22.50;13.48;;;12.70;88.10;;;;;;5134100;27;20052;-70
2021/04/26 06:33:30;;;;;;;25.70;14.07;;;12.80;86.30;;;;;;5134067;27;20038;-70
2021/04/26 06:35:55;;;;;;;16.25;11.82;;;12.80;85.60;;;;;;5133978;28;20027;-72
2021/04/26 06:38:22;;;;;;;30.02;13.82;;;12.90;83.10;;;;;;5133869;27;20398;-72
2021/04/26 06:40:49;;;;;;;22.15;13.80;;;12.90;84.50;;;;;;5133777;28;20031;-70
2021/04/26 06:43:15;;;;;;;22.58;14.13;;;12.90;85.40;;;;;;5133710;28;20084;-70
2021/04/26 06:45:44;;;;;;;20.20;14.50;;;13.10;83.90;;;;;;5115380;28;20027;-69
2021/04/26 06:48:13;;;;;;;18.75;13.00;;;13.20;86.40;;;;;;5133868;28;20102;-73
2021/04/26 06:50:40;;;;;;;19.83;12.98;;;13.30;84.40;;;;;;5133635;28;20102;-71
2021/04/26 06:53:05;;;;;;;24.35;13.95;;;13.40;83.00;;;;;;5115328;28;20027;-70
2021/04/26 06:55:32;;;;;;;16.90;12.10;;;13.50;83.50;;;;;;5133757;28;20080;-71
2021/04/26 06:57:58;;;;;;;19.30;11.68;;;13.50;82.60;;;;;;5117654;27;20487;-71
2021/04/26 07:00:26;;;;;;;22.83;14.32;;;13.50;83.30;;;;;;5138158;27;20053;-71
2021/04/26 07:02:52;;;;;;;14.60;10.85;;;13.60;81.50;;;;;;5137769;27;20039;-71
2021/04/26 07:05:18;;;;;;;24.92;13.07;;;13.70;83.10;;;;;;5119340;27;20034;-72
2021/04/26 07:07:45;;;;;;;17.42;12.25;;;13.80;82.00;;;;;;5119235;27;20553;-71
2021/04/26 07:10:11;;;;;;;18.30;11.27;;;13.90;80.70;;;;;;5137809;27;20061;-71
2021/04/26 07:12:38;;;;;;;26.65;11.25;;;13.90;78.20;;;;;;5119238;27;20531;-70
2021/04/26 07:15:08;;;;;;;15.02;10.80;;;14.00;77.10;;;;;;5137644;27;20072;-72
2021/04/26 07:17:34;;;;;;;16.90;11.35;;;14.10;76.90;;;;;;5137509;27;20140;-72
2021/04/26 07:20:03;;;;;;;18.52;10.63;;;14.20;76.30;;;;;;5137563;27;20034;-69
2021/04/26 07:22:29;;;;;;;17.05;11.20;;;14.40;76.30;;;;;;5137381;27;20116;-71
2021/04/26 07:24:55;;;;;;;16.13;11.23;;;14.50;74.90;;;;;;5137293;27;20023;-73
2021/04/26 07:27:21;;;;;;;16.58;11.80;;;14.50;76.50;;;;;;5137442;27;20023;-71
2021/04/26 07:29:47;;;;;;;15.55;11.40;;;;;;;;;;5137491;27;20459;-71
2021/04/26 07:32:14;;;;;;;17.30;10.73;;;;;;;;;;5137377;27;20028;-71
2021/04/26 07:34:40;;;;;;;17.15;9.75;;;;;;;;;;5137620;27;20597;-73
2021/04/26 07:37:06;;;;;;;17.13;10.10;;;;;;;;;;5137169;27;20098;-71
2021/04/26 07:39:32;;;;;;;15.82;9.70;;;;;;;;;;5137285;27;20107;-71
2021/04/26 07:41:59;;;;;;;12.10;10.32;;;;;;;;;;5136612;27;20126;-71
2021/04/26 07:44:28;;;;;;;21.77;11.98;;;;;;;;;;5118208;27;20063;-72
2021/04/26 07:46:57;;;;;;;19.40;11.50;;;;;;;;;;5136509;27;20033;-70
2021/04/26 07:49:24;;;;;;;17.65;11.63;;;;;;;;;;5118644;27;20058;-70
2021/04/26 07:51:50;;;;;;;19.30;11.57;;;15.30;70.20;;;;;;5118436;27;20030;-72
2021/04/26 07:54:16;;;;;;;11.73;9.80;;;15.50;68.20;;;;;;5137361;27;20027;-72
2021/04/26 07:56:42;;;;;;;18.52;11.07;;;15.50;68.00;;;;;;5118421;27;20102;-71
2021/04/26 07:59:08;;;;;;;17.73;11.25;;;15.60;70.10;;;;;;5136875;27;20110;-71
2021/04/26 08:01:34;;;;;;;17.15;10.18;;;15.70;70.20;;;;;;5118240;27;20027;-69
2021/04/26 08:04:00;;;;;;;17.50;10.98;;;15.70;67.10;;;;;;5118032;27;20124;-70
2021/04/26 08:06:26;;;;;;;12.80;10.02;;;;;;;;;;5136664;27;20105;-69
2021/04/26 08:08:52;;;;;;;21.95;12.27;;;16.10;68.00;;;;;;5135390;27;20083;-70
2021/04/26 08:11:18;;;;;;;15.75;9.40;;;16.20;66.70;;;;;;5136643;27;20466;-71
2021/04/26 08:13:44;;;;;;;14.23;10.02;;;16.30;66.90;;;;;;5136577;27;20023;-70
2021/04/26 08:16:10;;;;;;;14.23;8.82;;;16.40;68.50;;;;;;5136553;27;20054;-71
2021/04/26 08:18:36;;;;;;;18.08;10.00;;;16.40;64.90;;;;;;5118024;27;20118;-70
2021/04/26 08:21:02;;;;;;;21.33;12.00;;;16.60;65.50;;;;;;5133928;27;20352;-70
2021/04/26 08:23:28;;;;;;;22.52;9.93;;;16.70;65.30;;;;;;5115897;27;20031;-72
2021/04/26 08:25:54;;;;;;;13.32;9.20;;;16.80;66.10;;;;;;5135977;27;20108;-73
2021/04/26 08:28:20;;;;;;;16.48;8.57;;;16.90;62.60;;;;;;5117320;27;20121;-70
2021/04/26 08:30:48;;;;;;;16.30;8.98;;;17.00;62.70;;;;;;5136170;27;20485;-71
2021/04/26 08:33:14;;;;;;;17.58;10.73;;;17.00;60.60;;;;;;5117687;27;20080;-70
2021/04/26 08:35:40;;;;;;;18.75;9.70;;;17.10;61.30;;;;;;5135813;27;20479;-71
2021/04/26 08:38:06;;;;;;;14.65;8.40;;;17.40;63.20;;;;;;5135990;27;20030;-70
2021/04/26 08:40:32;;;;;;;15.88;11.43;;;17.30;61.80;;;;;;5117539;27;20027;-70
2021/04/26 08:43:06;;;;;;;14.80;9.82;;;17.40;60.60;;;;;;5136098;27;20026;-70
2021/04/26 08:45:33;;;;;;;28.33;11.65;;;17.50;60.10;;;;;;5136208;27;20042;-70
2021/04/26 08:48:00;;;;;;;12.85;9.52;;;17.50;60.40;;;;;;5136012;27;20098;-71
2021/04/26 08:50:27;;;;;;;11.32;8.48;;;17.70;59.60;;;;;;5117465;27;20023;-71
2021/04/26 08:52:53;;;;;;;14.98;8.73;;;17.90;57.20;;;;;;5135533;27;20037;-70
2021/04/26 08:55:19;;;;;;;16.13;9.75;;;18.00;59.20;;;;;;5117324;27;20031;-70
2021/04/26 08:57:47;;;;;;;13.18;9.52;;;18.10;58.00;;;;;;5135781;27;20499;-70
2021/04/26 09:00:14;;;;;;;14.70;9.95;;;;;;;;;;5116305;27;20030;-70
2021/04/26 09:03:07;;;;;;;17.10;10.30;;;;;;;;;;5134915;27;20523;-70
2021/04/26 09:05:36;;;;;;;17.00;9.18;;;;;;;;;;5130771;27;20043;-70
2021/04/26 09:08:05;;;;;;;11.93;7.90;;;;;;;;;;5116966;27;20413;-70
2021/04/26 09:10:51;;;;;;;15.13;9.50;;;18.60;55.70;;;;;;5135436;27;20030;-70
2021/04/26 09:13:32;;;;;;;17.73;9.25;;;18.80;57.80;;;;;;5135376;27;20066;-70
2021/04/26 09:16:10;;;;;;;11.15;9.15;;;18.90;54.40;;;;;;5116891;27;20023;-69
2021/04/26 09:18:54;;;;;;;18.42;9.45;;;19.20;55.80;;;;;;5135441;27;20031;-70
2021/04/26 09:21:23;;;;;;;18.52;9.45;;;19.30;53.00;;;;;;5135361;27;20420;-70
2021/04/26 09:24:08;;;;;;;10.93;6.85;;;19.50;53.30;;;;;;5135117;27;20035;-71
2021/04/26 09:26:34;;;;;;;12.10;7.88;;;19.70;53.60;;;;;;5043133;28;20502;-70
2021/04/26 09:29:14;;;;;;;11.02;7.68;;;19.90;51.80;;;;;;5034493;28;20037;-70
2021/04/26 09:31:41;;;;;;;19.27;7.90;;;19.70;48.80;;;;;;5034016;28;20386;-69
2021/04/26 09:34:40;;;;;;;17.67;7.65;;;19.80;49.70;;;;;;5033141;28;20037;-69
2021/04/26 09:37:30;;;;;;;12.82;7.18;;;19.90;47.60;;;;;;5034700;28;20053;-69
2021/04/26 09:40:15;;;;;;;26.65;8.57;;;20.10;48.80;;;;;;5032514;28;20029;-69
2021/04/26 09:42:53;;;;;;;10.50;6.68;;;20.30;45.80;;;;;;5033677;28;20096;-69
2021/04/26 09:45:22;;;;;;;9.75;6.35;;;;;;;;;;5033654;28;20025;-69
2021/04/26 09:47:51;;;;;;;9.20;6.50;;;20.70;44.30;;;;;;5032335;28;20071;-69
2021/04/26 09:50:17;;;;;;;11.73;6.20;;;20.90;45.80;;;;;;5033624;28;20021;-69
2021/04/26 09:52:43;;;;;;;14.93;9.35;;;21.10;44.70;;;;;;5031133;28;20060;-71
2021/04/26 09:55:28;;;;;;;15.65;6.97;;;20.70;45.60;;;;;;5030731;28;20485;-71
2021/04/26 09:57:55;;;;;;;10.32;6.78;;;21.00;46.10;;;;;;5032281;28;20021;-72
2021/04/26 10:00:21;;;;;;;10.23;5.85;;;21.10;44.50;;;;;;5031941;28;20025;-71
2021/04/26 10:02:47;;;;;;;9.05;6.90;;;21.20;45.80;;;;;;5033239;28;20037;-73
2021/04/26 10:05:14;;;;;;;9.25;6.20;;;21.20;45.30;;;;;;5033343;28;20037;-72
2021/04/26 10:07:40;;;;;;;13.40;6.22;;;21.20;43.90;;;;;;5033329;28;20035;-72
2021/04/26 10:10:06;;;;;;;7.55;5.55;;;21.10;42.50;;;;;;5031976;28;20029;-72
2021/04/26 10:12:32;;;;;;;11.15;5.50;;;21.60;43.00;;;;;;5032072;28;20060;-73
2021/04/26 10:14:58;;;;;;;9.90;6.00;;;21.70;43.70;;;;;;5033189;28;20061;-73
2021/04/26 10:17:24;;;;;;;10.02;6.00;;;21.90;41.90;;;;;;5031901;28;20034;-72
2021/04/26 10:19:51;;;;;;;7.72;5.28;;;;;;;;;;5033227;28;20078;-73
2021/04/26 10:22:37;;;;;;;17.27;5.57;;;22.40;40.60;;;;;;5033200;28;20025;-75
2021/04/26 10:25:05;;;;;;;15.82;5.03;;;22.70;39.30;;;;;;5041007;28;20500;-71
2021/04/26 10:27:40;;;;;;;10.15;5.38;;;23.10;39.70;;;;;;5072221;28;20028;-74
2021/04/26 10:30:08;;;;;;;17.90;5.85;;;;;;;;;;5073119;28;20490;-71
2021/04/26 10:33:09;;;;;;;10.80;5.93;;;24.20;40.10;;;;;;5072058;28;20017;-72
2021/04/26 10:35:46;;;;;;;29.70;7.00;;;;;;;;;;4972076;28;20062;-72
2021/04/26 10:38:30;;;;;;;7.55;4.95;;;;;;;;;;4971855;28;20549;-73
2021/04/26 10:40:56;;;;;;;7.85;5.30;;;25.20;34.40;;;;;;4972225;28;20038;-71
2021/04/26 10:43:30;;;;;;;7.47;5.05;;;25.60;36.00;;;;;;4971177;28;20046;-70
2021/04/26 10:46:14;;;;;;;7.57;5.30;;;26.50;32.20;;;;;;4971702;28;20038;-69
2021/04/26 10:49:19;;;;;;;7.88;4.95;;;26.80;33.60;;;;;;4971360;28;20034;-70
2021/04/26 10:51:46;;;;;;;10.68;5.68;;;;;;;;;;4954689;28;20042;-71
2021/04/26 10:54:12;;;;;;;171.43;11.63;;;;;;;;;;4984215;28;20038;-71
2021/04/26 10:56:38;;;;;;;9.30;5.65;;;;;;;;;;4990979;28;20039;-69
2021/04/26 10:59:16;;;;;;;17.13;5.82;;;;;;;;;;4975821;28;20061;-72
2021/04/26 11:01:49;;;;;;;8.30;5.30;;;;;;;;;;4971602;28;20440;-71
2021/04/26 11:04:16;;;;;;;7.30;5.28;;;;;;;;;;4955214;28;20035;-70
2021/04/26 11:07:01;;;;;;;9.32;5.53;;;;;;;;;;4955254;28;20031;-71
2021/04/26 11:09:39;;;;;;;9.85;6.28;;;;;;;;;;4990879;28;20037;-71
2021/04/26 11:12:24;;;;;;;10.85;5.88;;;;;;;;;;5052598;28;20039;-71
2021/04/26 11:14:50;;;;;;;6.00;5.25;;;;;;;;;;5034655;28;20087;-71
2021/04/26 11:17:25;;;;;;;62.03;8.55;;;;;;;;;;5052426;28;20025;-69
2021/04/26 11:20:22;;;;;;;7.63;5.30;;;;;;;;;;5052741;28;20044;-71
2021/04/26 11:22:48;;;;;;;8.77;6.38;;;26.90;31.90;;;;;;5045266;28;20113;-70
2021/04/26 11:25:35;;;;;;;9.98;6.00;;;26.10;35.00;;;;;;5072243;28;20048;-71
2021/04/26 11:28:01;;;;;;;8.98;6.55;;;25.80;35.70;;;;;;5072322;28;20041;-73
2021/04/26 11:30:30;;;;;;;10.57;6.57;;;25.80;35.90;;;;;;5072236;28;20389;-69
2021/04/26 11:33:18;;;;;;;9.20;6.10;;;25.90;35.10;;;;;;5072353;28;20048;-71
2021/04/26 11:36:06;;;;;;;10.10;6.35;;;25.90;35.30;;;;;;5054271;28;20115;-69
2021/04/26 11:38:34;;;;;;;9.68;6.72;;;25.50;34.60;;;;;;5072365;28;20440;-70
2021/04/26 11:41:00;;;;;;;15.13;7.18;;;25.20;35.20;;;;;;5072285;28;20055;-70
2021/04/26 11:43:26;;;;;;;7.00;5.80;;;24.60;36.50;;;;;;5073571;28;20033;-70
2021/04/26 11:45:52;;;;;;;18.95;6.88;;;24.30;37.60;;;;;;5075775;28;20024;-69
2021/04/26 11:48:26;;;;;;;12.68;6.78;;;24.00;38.10;;;;;;5057868;28;20028;-70
2021/04/26 11:50:52;;;;;;;10.68;6.57;;;23.90;37.20;;;;;;5075891;28;20056;-71
2021/04/26 11:53:29;;;;;;;10.80;6.13;;;23.70;39.50;;;;;;5075956;28;20079;-71
2021/04/26 11:55:55;;;;;;;12.02;6.32;;;23.60;37.60;;;;;;5075841;28;20341;-72
2021/04/26 11:58:26;;;;;;;8.68;6.07;;;22.90;38.40;;;;;;5075746;28;20021;-71
2021/04/26 12:00:52;;;;;;;17.33;6.95;;;;;;;;;;5075478;28;20021;-70
2021/04/26 12:03:18;;;;;;;14.02;6.88;;;22.50;39.60;;;;;;5075397;28;20074;-70
2021/04/26 12:05:44;;;;;;;10.98;6.75;;;22.70;39.50;;;;;;5075168;28;20028;-70
2021/04/26 12:08:11;;;;;;;8.52;6.18;;;23.20;39.30;;;;;;5075373;28;20427;-70
2021/04/26 12:10:40;;;;;;;7.28;5.63;;;23.70;36.80;;;;;;5057450;28;20029;-70
2021/04/26 12:13:08;;;;;;;7.95;5.82;;;24.90;36.40;;;;;;5057358;28;20124;-71
2021/04/26 12:15:36;;;;;;;8.35;6.20;;;25.60;35.60;;;;;;5075327;28;20465;-71
2021/04/26 12:18:04;;;;;;;7.95;5.72;;;26.70;33.80;;;;;;5075308;28;20035;-72
2021/04/26 12:20:35;;;;;;;10.57;5.70;;;;;;;;;;5075306;28;20024;-71
2021/04/26 12:23:02;;;;;;;8.73;5.53;;;;;;;;;;5075098;28;20025;-70
2021/04/26 12:25:34;;;;;;;10.45;5.45;;;;;;;;;;5075002;28;20037;-71
2021/04/26 12:28:01;;;;;;;23.23;6.50;;;;;;;;;;5057135;28;20463;-72
2021/04/26 12:30:27;;;;;;;18.13;6.25;;;;;;;;;;5074698;28;20024;-71
2021/04/26 12:32:55;;;;;;;12.52;6.10;;;;;;;;;;5074963;28;20111;-72
2021/04/26 12:35:29;;;;;;;11.88;6.22;;;;;;;;;;5074902;28;20024;-73
2021/04/26 12:37:56;;;;;;;9.07;6.35;;;;;;;;;;5074862;28;20508;-71
2021/04/26 12:40:26;;;;;;;7.32;5.22;;;;;;;;;;5074785;28;20048;-71
2021/04/26 12:42:58;;;;;;;21.80;6.07;;;;;;;;;;5056720;28;20111;-69
2021/04/26 12:45:26;;;;;;;7.75;5.70;;;;;;;;;;5056806;28;20377;-72
2021/04/26 12:48:03;;;;;;;10.98;5.45;;;;;;;;;;5074646;28;20096;-70
2021/04/26 12:50:46;;;;;;;9.55;5.85;;;;;;;;;;5074658;28;20021;-70
2021/04/26 12:53:14;;;;;;;11.35;5.55;;;;;;;;;;5056688;28;20021;-73
2021/04/26 12:55:51;;;;;;;11.88;5.70;;;;;;;;;;5074062;28;20089;-74
2021/04/26 12:58:25;;;;;;;11.63;5.85;;;;;;;;;;5074523;28;20492;-73